sensor_id;sensor_type;location;lat;lon;timestamp;temperature;humidity
7502;DHT22;3792;47.740;7.606;2024-01-15T00:01:49;0.70;99.90
7502;DHT22;3792;47.740;7.606;2024-01-15T00:04:16;0.60;99.90
7502;DHT22;3792;47.740;7.606;2024-01-15T00:06:43;0.40;99.90
7502;DHT22;3792;47.740;7.606;2024-01-15T00:09:10;0.30;99.90
7502;DHT22;3792;47.740;7.606;2024-01-15T00:11:37;0.20;99.90
7502;DHT22;3792;47.740;7.606;2024-01-15T00:14:09;0.10;99.90
7502;DHT22;3792;47.740;7.606;2024-01-15T00:16:37;0.00;99.90
7502;DHT22;3792;47.740;7.606;2024-01-15T00:19:04;-0.10;99.90
7502;DHT22;3792;47.740;7.606;2024-01-15T00:21:33;-0.10;99.90
7502;DHT22;3792;47.740;7.606;2024-01-15T00:24:00;-0.10;99.90
7502;DHT22;3792;47.740;7.606;2024-01-15T00:26:27;-0.10;99.90
7502;DHT22;3792;47.740;7.606;2024-01-15T00:28:54;-0.10;99.90
7502;DHT22;3792;47.740;7.606;2024-01-15T00:31:22;-0.10;99.90
7502;DHT22;3792;47.740;7.606;2024-01-15T00:33:49;-0.10;99.90
7502;DHT22;3792;47.740;7.606;2024-01-15T00:36:16;-0.10;99.90
7502;DHT22;3792;47.740;7.606;2024-01-15T00:38:44;-0.20;99.90
7502;DHT22;3792;47.740;7.606;2024-01-15T00:41:13;-0.30;99.90
7502;DHT22;3792;47.740;7.606;2024-01-15T00:43:40;-0.30;99.90
7502;DHT22;3792;47.740;7.606;2024-01-15T00:46:07;-0.30;99.90
7502;DHT22;3792;47.740;7.606;2024-01-15T00:48:38;-0.30;99.90
7502;DHT22;3792;47.740;7.606;2024-01-15T00:51:10;-0.20;99.90
7502;DHT22;3792;47.740;7.606;2024-01-15T00:53:37;-0.20;99.90
7502;DHT22;3792;47.740;7.606;2024-01-15T00:56:04;-0.10;99.90
7502;DHT22;3792;47.740;7.606;2024-01-15T00:58:31;-0.10;99.90
7502;DHT22;3792;47.740;7.606;2024-01-15T01:00:59;-0.10;99.90
7502;DHT22;3792;47.740;7.606;2024-01-15T01:03:26;-0.10;99.90
7502;DHT22;3792;47.740;7.606;2024-01-15T01:05:54;-0.20;99.90
7502;DHT22;3792;47.740;7.606;2024-01-15T01:08:24;-0.30;99.90
7502;DHT22;3792;47.740;7.606;2024-01-15T01:10:51;-0.30;99.90
7502;DHT22;3792;47.740;7.606;2024-01-15T01:13:20;-0.40;99.90
7502;DHT22;3792;47.740;7.606;2024-01-15T01:15:49;-0.40;99.90
7502;DHT22;3792;47.740;7.606;2024-01-15T01:18:16;-0.30;99.90
7502;DHT22;3792;47.740;7.606;2024-01-15T01:20:45;-0.40;99.90
7502;DHT22;3792;47.740;7.606;2024-01-15T01:23:13;-0.40;99.90
7502;DHT22;3792;47.740;7.606;2024-01-15T01:25:40;-0.40;99.90
7502;DHT22;3792;47.740;7.606;2024-01-15T01:28:07;-0.40;99.90
7502;DHT22;3792;47.740;7.606;2024-01-15T01:30:35;-0.40;99.90
7502;DHT22;3792;47.740;7.606;2024-01-15T01:33:02;-0.40;99.90
7502;DHT22;3792;47.740;7.606;2024-01-15T01:35:29;-0.40;99.90
7502;DHT22;3792;47.740;7.606;2024-01-15T01:37:59;-0.50;99.90
7502;DHT22;3792;47.740;7.606;2024-01-15T01:40:30;-0.60;99.90
7502;DHT22;3792;47.740;7.606;2024-01-15T01:42:57;-0.70;99.90
7502;DHT22;3792;47.740;7.606;2024-01-15T01:45:27;-0.80;99.90
7502;DHT22;3792;47.740;7.606;2024-01-15T01:47:54;-0.90;99.90
7502;DHT22;3792;47.740;7.606;2024-01-15T01:50:21;-1.00;99.90
7502;DHT22;3792;47.740;7.606;2024-01-15T01:52:49;-1.00;99.90
7502;DHT22;3792;47.740;7.606;2024-01-15T01:55:18;-1.00;99.90
7502;DHT22;3792;47.740;7.606;2024-01-15T01:57:49;-1.00;99.90
7502;DHT22;3792;47.740;7.606;2024-01-15T02:00:17;-1.10;99.90
7502;DHT22;3792;47.740;7.606;2024-01-15T02:02:44;-1.20;99.90
7502;DHT22;3792;47.740;7.606;2024-01-15T02:05:12;-1.20;99.90
7502;DHT22;3792;47.740;7.606;2024-01-15T02:07:41;-1.20;99.90
7502;DHT22;3792;47.740;7.606;2024-01-15T02:10:09;-1.30;99.90
7502;DHT22;3792;47.740;7.606;2024-01-15T02:12:36;-1.40;99.90
7502;DHT22;3792;47.740;7.606;2024-01-15T02:15:05;-1.40;99.90
7502;DHT22;3792;47.740;7.606;2024-01-15T02:17:32;-1.40;99.90
7502;DHT22;3792;47.740;7.606;2024-01-15T02:20:02;-1.40;99.90
7502;DHT22;3792;47.740;7.606;2024-01-15T02:22:29;-1.40;99.90
7502;DHT22;3792;47.740;7.606;2024-01-15T02:24:57;-1.30;99.90
7502;DHT22;3792;47.740;7.606;2024-01-15T02:27:25;-1.30;99.90
7502;DHT22;3792;47.740;7.606;2024-01-15T02:29:52;-1.30;99.90
7502;DHT22;3792;47.740;7.606;2024-01-15T02:32:19;-1.20;99.90
7502;DHT22;3792;47.740;7.606;2024-01-15T02:34:46;-1.20;99.90
7502;DHT22;3792;47.740;7.606;2024-01-15T02:37:13;-1.30;99.90
7502;DHT22;3792;47.740;7.606;2024-01-15T02:39:42;-1.30;99.90
7502;DHT22;3792;47.740;7.606;2024-01-15T02:42:10;-1.30;99.90
7502;DHT22;3792;47.740;7.606;2024-01-15T02:44:39;-1.30;99.90
7502;DHT22;3792;47.740;7.606;2024-01-15T02:47:06;-1.20;99.90
7502;DHT22;3792;47.740;7.606;2024-01-15T02:49:33;-1.20;99.90
7502;DHT22;3792;47.740;7.606;2024-01-15T02:52:00;-1.10;99.90
7502;DHT22;3792;47.740;7.606;2024-01-15T02:54:28;-1.10;99.90
7502;DHT22;3792;47.740;7.606;2024-01-15T02:56:55;-0.90;99.90
7502;DHT22;3792;47.740;7.606;2024-01-15T02:59:23;-0.90;99.90
7502;DHT22;3792;47.740;7.606;2024-01-15T03:01:53;-1.00;99.90
7502;DHT22;3792;47.740;7.606;2024-01-15T03:04:21;-1.00;99.90
7502;DHT22;3792;47.740;7.606;2024-01-15T03:06:48;-1.00;99.90
7502;DHT22;3792;47.740;7.606;2024-01-15T03:09:15;-0.90;99.90
7502;DHT22;3792;47.740;7.606;2024-01-15T03:11:42;-0.80;99.90
7502;DHT22;3792;47.740;7.606;2024-01-15T03:14:10;-0.70;99.90
7502;DHT22;3792;47.740;7.606;2024-01-15T03:16:38;-0.60;99.90
7502;DHT22;3792;47.740;7.606;2024-01-15T03:19:05;-0.60;99.90
7502;DHT22;3792;47.740;7.606;2024-01-15T03:21:35;-0.50;99.90
7502;DHT22;3792;47.740;7.606;2024-01-15T03:24:03;-0.50;99.90
7502;DHT22;3792;47.740;7.606;2024-01-15T03:26:30;-0.40;99.90
7502;DHT22;3792;47.740;7.606;2024-01-15T03:29:00;-0.40;99.90
7502;DHT22;3792;47.740;7.606;2024-01-15T03:31:30;-0.30;99.90
7502;DHT22;3792;47.740;7.606;2024-01-15T03:33:58;-0.30;99.90
7502;DHT22;3792;47.740;7.606;2024-01-15T03:36:25;-0.20;99.90
7502;DHT22;3792;47.740;7.606;2024-01-15T03:38:52;-0.20;99.90
7502;DHT22;3792;47.740;7.606;2024-01-15T03:41:19;-0.10;99.90
7502;DHT22;3792;47.740;7.606;2024-01-15T03:43:48;-0.10;99.90
7502;DHT22;3792;47.740;7.606;2024-01-15T03:46:15;-0.10;99.90
7502;DHT22;3792;47.740;7.606;2024-01-15T03:48:42;-0.10;99.90
7502;DHT22;3792;47.740;7.606;2024-01-15T03:51:11;0.00;99.90
7502;DHT22;3792;47.740;7.606;2024-01-15T03:53:38;0.00;99.90
7502;DHT22;3792;47.740;7.606;2024-01-15T03:56:05;0.00;99.90
7502;DHT22;3792;47.740;7.606;2024-01-15T03:58:35;0.00;99.90
7502;DHT22;3792;47.740;7.606;2024-01-15T04:01:02;0.00;99.90
7502;DHT22;3792;47.740;7.606;2024-01-15T04:03:29;0.00;99.90
7502;DHT22;3792;47.740;7.606;2024-01-15T04:05:56;0.00;99.90
7502;DHT22;3792;47.740;7.606;2024-01-15T04:08:24;0.00;99.90
7502;DHT22;3792;47.740;7.606;2024-01-15T04:10:51;0.10;99.90
7502;DHT22;3792;47.740;7.606;2024-01-15T04:13:19;0.20;99.90
7502;DHT22;3792;47.740;7.606;2024-01-15T04:15:46;0.20;99.90
7502;DHT22;3792;47.740;7.606;2024-01-15T04:18:16;0.20;99.90
7502;DHT22;3792;47.740;7.606;2024-01-15T04:20:46;0.20;99.90
7502;DHT22;3792;47.740;7.606;2024-01-15T04:23:13;0.20;99.90
7502;DHT22;3792;47.740;7.606;2024-01-15T04:25:41;0.20;99.90
7502;DHT22;3792;47.740;7.606;2024-01-15T04:28:08;0.20;99.90
7502;DHT22;3792;47.740;7.606;2024-01-15T04:30:38;0.20;99.90
7502;DHT22;3792;47.740;7.606;2024-01-15T04:33:05;0.20;99.90
7502;DHT22;3792;47.740;7.606;2024-01-15T04:35:33;0.10;99.90
7502;DHT22;3792;47.740;7.606;2024-01-15T04:38:02;0.20;99.90
7502;DHT22;3792;47.740;7.606;2024-01-15T04:40:29;0.20;99.90
7502;DHT22;3792;47.740;7.606;2024-01-15T04:42:58;0.20;99.90
7502;DHT22;3792;47.740;7.606;2024-01-15T04:45:26;0.20;99.90
7502;DHT22;3792;47.740;7.606;2024-01-15T04:47:54;0.20;99.90
7502;DHT22;3792;47.740;7.606;2024-01-15T04:50:24;0.20;99.90
7502;DHT22;3792;47.740;7.606;2024-01-15T04:52:52;0.20;99.90
7502;DHT22;3792;47.740;7.606;2024-01-15T04:55:19;0.20;99.90
7502;DHT22;3792;47.740;7.606;2024-01-15T04:57:46;0.20;99.90
7502;DHT22;3792;47.740;7.606;2024-01-15T05:00:15;0.20;99.90
7502;DHT22;3792;47.740;7.606;2024-01-15T05:02:42;0.30;99.90
7502;DHT22;3792;47.740;7.606;2024-01-15T05:05:11;0.20;99.90
7502;DHT22;3792;47.740;7.606;2024-01-15T05:07:38;0.20;99.90
7502;DHT22;3792;47.740;7.606;2024-01-15T05:10:06;0.20;99.90
7502;DHT22;3792;47.740;7.606;2024-01-15T05:12:34;0.20;99.90
7502;DHT22;3792;47.740;7.606;2024-01-15T05:15:06;0.30;99.90
7502;DHT22;3792;47.740;7.606;2024-01-15T05:17:39;0.30;99.90
7502;DHT22;3792;47.740;7.606;2024-01-15T05:20:06;0.30;99.90
7502;DHT22;3792;47.740;7.606;2024-01-15T05:22:34;0.40;99.90
7502;DHT22;3792;47.740;7.606;2024-01-15T05:25:04;0.40;99.90
7502;DHT22;3792;47.740;7.606;2024-01-15T05:27:33;0.40;99.90
7502;DHT22;3792;47.740;7.606;2024-01-15T05:30:00;0.40;99.90
7502;DHT22;3792;47.740;7.606;2024-01-15T05:32:27;0.40;99.90
7502;DHT22;3792;47.740;7.606;2024-01-15T05:34:55;0.40;99.90
7502;DHT22;3792;47.740;7.606;2024-01-15T05:37:22;0.40;99.90
7502;DHT22;3792;47.740;7.606;2024-01-15T05:39:49;0.30;99.90
7502;DHT22;3792;47.740;7.606;2024-01-15T05:42:16;0.30;99.90
7502;DHT22;3792;47.740;7.606;2024-01-15T05:44:43;0.20;99.90
7502;DHT22;3792;47.740;7.606;2024-01-15T05:47:10;0.20;99.90
7502;DHT22;3792;47.740;7.606;2024-01-15T05:49:37;0.20;99.90
7502;DHT22;3792;47.740;7.606;2024-01-15T05:52:06;0.20;99.90
7502;DHT22;3792;47.740;7.606;2024-01-15T05:54:33;0.20;99.90
7502;DHT22;3792;47.740;7.606;2024-01-15T05:57:00;0.20;99.90
7502;DHT22;3792;47.740;7.606;2024-01-15T05:59:27;0.20;99.90
7502;DHT22;3792;47.740;7.606;2024-01-15T06:02:00;0.20;99.90
7502;DHT22;3792;47.740;7.606;2024-01-15T06:04:27;0.20;99.90
7502;DHT22;3792;47.740;7.606;2024-01-15T06:06:56;0.20;99.90
7502;DHT22;3792;47.740;7.606;2024-01-15T06:09:25;0.30;99.90
7502;DHT22;3792;47.740;7.606;2024-01-15T06:11:52;0.30;99.90
7502;DHT22;3792;47.740;7.606;2024-01-15T06:14:20;0.40;99.90
7502;DHT22;3792;47.740;7.606;2024-01-15T06:16:47;0.40;99.90
7502;DHT22;3792;47.740;7.606;2024-01-15T06:19:15;0.30;99.90
7502;DHT22;3792;47.740;7.606;2024-01-15T06:21:45;0.30;99.90
7502;DHT22;3792;47.740;7.606;2024-01-15T06:24:13;0.30;99.90
7502;DHT22;3792;47.740;7.606;2024-01-15T06:26:47;0.30;99.90
7502;DHT22;3792;47.740;7.606;2024-01-15T06:29:17;0.30;99.90
7502;DHT22;3792;47.740;7.606;2024-01-15T06:31:44;0.20;99.90
7502;DHT22;3792;47.740;7.606;2024-01-15T06:34:11;0.20;99.90
7502;DHT22;3792;47.740;7.606;2024-01-15T06:36:38;0.20;99.90
7502;DHT22;3792;47.740;7.606;2024-01-15T06:39:05;0.20;99.90
7502;DHT22;3792;47.740;7.606;2024-01-15T06:41:32;0.20;99.90
7502;DHT22;3792;47.740;7.606;2024-01-15T06:44:00;0.10;99.90
7502;DHT22;3792;47.740;7.606;2024-01-15T06:46:27;0.20;99.90
7502;DHT22;3792;47.740;7.606;2024-01-15T06:48:54;0.20;99.90
7502;DHT22;3792;47.740;7.606;2024-01-15T06:51:21;0.20;99.90
7502;DHT22;3792;47.740;7.606;2024-01-15T06:53:48;0.20;99.90
7502;DHT22;3792;47.740;7.606;2024-01-15T06:56:17;0.20;99.90
7502;DHT22;3792;47.740;7.606;2024-01-15T06:58:44;0.20;99.90
7502;DHT22;3792;47.740;7.606;2024-01-15T07:01:13;0.30;99.90
7502;DHT22;3792;47.740;7.606;2024-01-15T07:03:40;0.30;99.90
7502;DHT22;3792;47.740;7.606;2024-01-15T07:06:08;0.30;99.90
7502;DHT22;3792;47.740;7.606;2024-01-15T07:08:35;0.30;99.90
7502;DHT22;3792;47.740;7.606;2024-01-15T07:11:06;0.30;99.90
7502;DHT22;3792;47.740;7.606;2024-01-15T07:13:38;0.30;99.90
7502;DHT22;3792;47.740;7.606;2024-01-15T07:16:07;0.30;99.90
7502;DHT22;3792;47.740;7.606;2024-01-15T07:18:35;0.20;99.90
7502;DHT22;3792;47.740;7.606;2024-01-15T07:21:03;0.10;99.90
7502;DHT22;3792;47.740;7.606;2024-01-15T07:23:31;0.10;99.90
7502;DHT22;3792;47.740;7.606;2024-01-15T07:25:58;0.10;99.90
7502;DHT22;3792;47.740;7.606;2024-01-15T07:28:26;0.10;99.90
7502;DHT22;3792;47.740;7.606;2024-01-15T07:30:58;0.20;99.90
7502;DHT22;3792;47.740;7.606;2024-01-15T07:33:27;0.30;99.90
7502;DHT22;3792;47.740;7.606;2024-01-15T07:35:55;0.20;99.90
7502;DHT22;3792;47.740;7.606;2024-01-15T07:38:22;0.30;99.90
7502;DHT22;3792;47.740;7.606;2024-01-15T07:40:49;0.30;99.90
7502;DHT22;3792;47.740;7.606;2024-01-15T07:43:21;0.30;99.90
7502;DHT22;3792;47.740;7.606;2024-01-15T07:45:49;0.40;99.90
7502;DHT22;3792;47.740;7.606;2024-01-15T07:48:21;0.50;99.90
7502;DHT22;3792;47.740;7.606;2024-01-15T07:50:55;0.50;99.90
7502;DHT22;3792;47.740;7.606;2024-01-15T07:53:28;0.50;99.90
7502;DHT22;3792;47.740;7.606;2024-01-15T07:55:59;0.50;99.90
7502;DHT22;3792;47.740;7.606;2024-01-15T07:58:31;0.50;99.90
7502;DHT22;3792;47.740;7.606;2024-01-15T08:01:00;0.50;99.90
7502;DHT22;3792;47.740;7.606;2024-01-15T08:03:27;0.60;99.90
7502;DHT22;3792;47.740;7.606;2024-01-15T08:05:55;0.60;99.90
7502;DHT22;3792;47.740;7.606;2024-01-15T08:08:23;0.60;99.90
7502;DHT22;3792;47.740;7.606;2024-01-15T08:10:53;0.70;99.90
7502;DHT22;3792;47.740;7.606;2024-01-15T08:13:20;0.70;99.90
7502;DHT22;3792;47.740;7.606;2024-01-15T08:15:47;0.70;99.90
7502;DHT22;3792;47.740;7.606;2024-01-15T08:18:15;0.70;99.90
7502;DHT22;3792;47.740;7.606;2024-01-15T08:20:44;0.60;99.90
7502;DHT22;3792;47.740;7.606;2024-01-15T08:23:13;0.50;99.90
7502;DHT22;3792;47.740;7.606;2024-01-15T08:25:42;0.60;99.90
7502;DHT22;3792;47.740;7.606;2024-01-15T08:28:09;0.60;99.90
7502;DHT22;3792;47.740;7.606;2024-01-15T08:30:36;0.60;99.90
7502;DHT22;3792;47.740;7.606;2024-01-15T08:33:06;0.70;99.90
7502;DHT22;3792;47.740;7.606;2024-01-15T08:35:34;0.70;99.90
7502;DHT22;3792;47.740;7.606;2024-01-15T08:38:01;0.80;99.90
7502;DHT22;3792;47.740;7.606;2024-01-15T08:40:29;0.80;99.90
7502;DHT22;3792;47.740;7.606;2024-01-15T08:42:56;0.70;99.90
7502;DHT22;3792;47.740;7.606;2024-01-15T08:45:23;0.80;99.90
7502;DHT22;3792;47.740;7.606;2024-01-15T08:47:51;0.80;99.90
7502;DHT22;3792;47.740;7.606;2024-01-15T08:50:19;0.80;99.90
7502;DHT22;3792;47.740;7.606;2024-01-15T08:52:48;0.80;99.90
7502;DHT22;3792;47.740;7.606;2024-01-15T08:55:15;0.80;99.90
7502;DHT22;3792;47.740;7.606;2024-01-15T08:57:44;0.90;99.90
7502;DHT22;3792;47.740;7.606;2024-01-15T09:00:13;0.90;99.90
7502;DHT22;3792;47.740;7.606;2024-01-15T09:02:40;0.90;99.90
7502;DHT22;3792;47.740;7.606;2024-01-15T09:05:08;1.00;99.90
7502;DHT22;3792;47.740;7.606;2024-01-15T09:07:35;1.00;99.90
7502;DHT22;3792;47.740;7.606;2024-01-15T09:10:06;0.90;99.90
7502;DHT22;3792;47.740;7.606;2024-01-15T09:12:33;0.90;99.90
7502;DHT22;3792;47.740;7.606;2024-01-15T09:15:05;0.90;99.90
7502;DHT22;3792;47.740;7.606;2024-01-15T09:17:34;0.90;99.90
7502;DHT22;3792;47.740;7.606;2024-01-15T09:20:01;0.90;99.90
7502;DHT22;3792;47.740;7.606;2024-01-15T09:22:30;1.00;99.90
7502;DHT22;3792;47.740;7.606;2024-01-15T09:24:58;1.00;99.90
7502;DHT22;3792;47.740;7.606;2024-01-15T09:27:25;1.00;99.90
7502;DHT22;3792;47.740;7.606;2024-01-15T09:29:54;1.10;99.90
7502;DHT22;3792;47.740;7.606;2024-01-15T09:32:24;1.20;99.90
7502;DHT22;3792;47.740;7.606;2024-01-15T09:34:52;1.30;99.90
7502;DHT22;3792;47.740;7.606;2024-01-15T09:37:19;1.40;99.90
7502;DHT22;3792;47.740;7.606;2024-01-15T09:39:46;1.40;99.90
7502;DHT22;3792;47.740;7.606;2024-01-15T09:42:16;1.50;99.90
7502;DHT22;3792;47.740;7.606;2024-01-15T09:44:43;1.60;99.90
7502;DHT22;3792;47.740;7.606;2024-01-15T09:47:12;1.60;99.90
7502;DHT22;3792;47.740;7.606;2024-01-15T09:49:49;1.50;99.90
7502;DHT22;3792;47.740;7.606;2024-01-15T09:52:17;1.50;99.90
7502;DHT22;3792;47.740;7.606;2024-01-15T09:54:46;1.60;99.90
7502;DHT22;3792;47.740;7.606;2024-01-15T09:57:14;1.70;99.90
7502;DHT22;3792;47.740;7.606;2024-01-15T09:59:43;1.80;99.90
7502;DHT22;3792;47.740;7.606;2024-01-15T10:02:13;1.80;99.90
7502;DHT22;3792;47.740;7.606;2024-01-15T10:04:45;1.80;99.90
7502;DHT22;3792;47.740;7.606;2024-01-15T10:07:15;1.80;99.90
7502;DHT22;3792;47.740;7.606;2024-01-15T10:09:44;1.90;99.90
7502;DHT22;3792;47.740;7.606;2024-01-15T10:12:12;1.90;99.90
7502;DHT22;3792;47.740;7.606;2024-01-15T10:14:40;1.90;99.90
7502;DHT22;3792;47.740;7.606;2024-01-15T10:17:12;1.90;99.90
7502;DHT22;3792;47.740;7.606;2024-01-15T10:19:42;2.00;99.90
7502;DHT22;3792;47.740;7.606;2024-01-15T10:22:13;2.10;99.90
7502;DHT22;3792;47.740;7.606;2024-01-15T10:24:41;2.20;99.90
7502;DHT22;3792;47.740;7.606;2024-01-15T10:27:09;2.20;99.90
7502;DHT22;3792;47.740;7.606;2024-01-15T10:29:37;2.30;99.90
7502;DHT22;3792;47.740;7.606;2024-01-15T10:32:07;2.30;99.90
7502;DHT22;3792;47.740;7.606;2024-01-15T10:34:37;2.30;99.90
7502;DHT22;3792;47.740;7.606;2024-01-15T10:37:07;2.40;99.90
7502;DHT22;3792;47.740;7.606;2024-01-15T10:39:36;2.40;99.90
7502;DHT22;3792;47.740;7.606;2024-01-15T10:42:06;2.20;99.90
7502;DHT22;3792;47.740;7.606;2024-01-15T10:44:34;2.20;99.90
7502;DHT22;3792;47.740;7.606;2024-01-15T10:47:01;2.20;99.90
7502;DHT22;3792;47.740;7.606;2024-01-15T10:49:29;2.20;99.90
7502;DHT22;3792;47.740;7.606;2024-01-15T10:51:56;2.30;99.90
7502;DHT22;3792;47.740;7.606;2024-01-15T10:54:28;2.30;99.90
7502;DHT22;3792;47.740;7.606;2024-01-15T10:56:56;2.30;99.90
7502;DHT22;3792;47.740;7.606;2024-01-15T10:59:24;2.20;99.90
7502;DHT22;3792;47.740;7.606;2024-01-15T11:01:52;2.30;99.90
7502;DHT22;3792;47.740;7.606;2024-01-15T11:04:22;2.30;99.90
7502;DHT22;3792;47.740;7.606;2024-01-15T11:06:53;2.30;99.90
7502;DHT22;3792;47.740;7.606;2024-01-15T11:09:23;2.40;99.90
7502;DHT22;3792;47.740;7.606;2024-01-15T11:12:09;2.40;99.90
7502;DHT22;3792;47.740;7.606;2024-01-15T11:14:39;2.30;99.90
7502;DHT22;3792;47.740;7.606;2024-01-15T11:17:09;2.30;99.90
7502;DHT22;3792;47.740;7.606;2024-01-15T11:19:37;2.30;99.90
7502;DHT22;3792;47.740;7.606;2024-01-15T11:22:07;2.30;99.90
7502;DHT22;3792;47.740;7.606;2024-01-15T11:24:36;2.30;99.90
7502;DHT22;3792;47.740;7.606;2024-01-15T11:27:04;2.30;99.90
7502;DHT22;3792;47.740;7.606;2024-01-15T11:29:34;2.30;99.90
7502;DHT22;3792;47.740;7.606;2024-01-15T11:32:06;2.30;99.90
7502;DHT22;3792;47.740;7.606;2024-01-15T11:34:53;2.30;99.90
7502;DHT22;3792;47.740;7.606;2024-01-15T11:37:21;2.20;99.90
7502;DHT22;3792;47.740;7.606;2024-01-15T11:39:54;2.20;99.90
7502;DHT22;3792;47.740;7.606;2024-01-15T11:42:23;2.20;99.90
7502;DHT22;3792;47.740;7.606;2024-01-15T11:44:52;2.20;99.90
7502;DHT22;3792;47.740;7.606;2024-01-15T11:50:15;2.20;99.90
7502;DHT22;3792;47.740;7.606;2024-01-15T11:52:47;2.20;99.90
7502;DHT22;3792;47.740;7.606;2024-01-15T11:55:22;2.30;99.90
7502;DHT22;3792;47.740;7.606;2024-01-15T11:57:54;2.30;99.90
7502;DHT22;3792;47.740;7.606;2024-01-15T12:00:24;2.20;99.90
7502;DHT22;3792;47.740;7.606;2024-01-15T12:02:54;2.20;99.90
7502;DHT22;3792;47.740;7.606;2024-01-15T12:05:22;2.30;99.90
7502;DHT22;3792;47.740;7.606;2024-01-15T12:07:49;2.30;99.90
7502;DHT22;3792;47.740;7.606;2024-01-15T12:10:18;2.30;99.90
7502;DHT22;3792;47.740;7.606;2024-01-15T12:12:58;2.30;99.90
7502;DHT22;3792;47.740;7.606;2024-01-15T12:15:28;2.30;99.90
7502;DHT22;3792;47.740;7.606;2024-01-15T12:17:57;2.30;99.90
7502;DHT22;3792;47.740;7.606;2024-01-15T12:20:24;2.30;99.90
7502;DHT22;3792;47.740;7.606;2024-01-15T12:22:51;2.30;99.90
7502;DHT22;3792;47.740;7.606;2024-01-15T12:25:18;2.30;99.90
7502;DHT22;3792;47.740;7.606;2024-01-15T12:27:46;2.40;99.90
7502;DHT22;3792;47.740;7.606;2024-01-15T12:30:17;2.50;99.90
7502;DHT22;3792;47.740;7.606;2024-01-15T12:32:45;2.60;99.90
7502;DHT22;3792;47.740;7.606;2024-01-15T12:35:14;2.60;99.90
7502;DHT22;3792;47.740;7.606;2024-01-15T12:37:44;2.60;99.90
7502;DHT22;3792;47.740;7.606;2024-01-15T12:40:14;2.80;99.90
7502;DHT22;3792;47.740;7.606;2024-01-15T12:42:45;3.10;99.90
7502;DHT22;3792;47.740;7.606;2024-01-15T12:45:13;3.20;99.90
7502;DHT22;3792;47.740;7.606;2024-01-15T12:47:40;3.10;99.90
7502;DHT22;3792;47.740;7.606;2024-01-15T12:50:13;3.10;99.90
7502;DHT22;3792;47.740;7.606;2024-01-15T12:52:43;3.00;99.90
7502;DHT22;3792;47.740;7.606;2024-01-15T12:55:11;3.10;99.90
7502;DHT22;3792;47.740;7.606;2024-01-15T12:57:40;3.00;99.90
7502;DHT22;3792;47.740;7.606;2024-01-15T13:00:08;3.00;99.90
7502;DHT22;3792;47.740;7.606;2024-01-15T13:02:40;3.00;99.90
7502;DHT22;3792;47.740;7.606;2024-01-15T13:05:10;3.10;99.90
7502;DHT22;3792;47.740;7.606;2024-01-15T13:07:40;3.20;99.90
7502;DHT22;3792;47.740;7.606;2024-01-15T13:10:07;3.20;99.90
7502;DHT22;3792;47.740;7.606;2024-01-15T13:12:37;3.20;99.90
7502;DHT22;3792;47.740;7.606;2024-01-15T13:15:05;3.20;99.90
7502;DHT22;3792;47.740;7.606;2024-01-15T13:17:37;3.10;99.90
7502;DHT22;3792;47.740;7.606;2024-01-15T13:20:05;3.10;99.90
7502;DHT22;3792;47.740;7.606;2024-01-15T13:22:36;3.00;99.90
7502;DHT22;3792;47.740;7.606;2024-01-15T13:25:06;3.00;99.90
7502;DHT22;3792;47.740;7.606;2024-01-15T13:27:34;2.90;99.90
7502;DHT22;3792;47.740;7.606;2024-01-15T13:30:04;2.80;99.90
7502;DHT22;3792;47.740;7.606;2024-01-15T13:32:32;2.80;99.90
7502;DHT22;3792;47.740;7.606;2024-01-15T13:35:01;2.70;99.90
7502;DHT22;3792;47.740;7.606;2024-01-15T13:37:35;2.70;99.90
7502;DHT22;3792;47.740;7.606;2024-01-15T13:40:03;2.50;99.90
7502;DHT22;3792;47.740;7.606;2024-01-15T13:42:30;2.50;99.90
7502;DHT22;3792;47.740;7.606;2024-01-15T13:44:57;2.40;99.90
7502;DHT22;3792;47.740;7.606;2024-01-15T13:47:25;2.40;99.90
7502;DHT22;3792;47.740;7.606;2024-01-15T13:49:56;2.40;99.90
7502;DHT22;3792;47.740;7.606;2024-01-15T13:52:24;2.40;99.90
7502;DHT22;3792;47.740;7.606;2024-01-15T13:54:54;2.40;99.90
7502;DHT22;3792;47.740;7.606;2024-01-15T13:57:21;2.40;99.90
7502;DHT22;3792;47.740;7.606;2024-01-15T13:59:51;2.30;99.90
7502;DHT22;3792;47.740;7.606;2024-01-15T14:02:21;2.20;99.90
7502;DHT22;3792;47.740;7.606;2024-01-15T14:04:48;2.30;99.90
7502;DHT22;3792;47.740;7.606;2024-01-15T14:07:15;2.30;99.90
7502;DHT22;3792;47.740;7.606;2024-01-15T14:09:42;2.30;99.90
7502;DHT22;3792;47.740;7.606;2024-01-15T14:12:13;2.40;99.90
7502;DHT22;3792;47.740;7.606;2024-01-15T14:14:41;2.40;99.90
7502;DHT22;3792;47.740;7.606;2024-01-15T14:17:11;2.40;99.90
7502;DHT22;3792;47.740;7.606;2024-01-15T14:19:40;2.50;99.90
7502;DHT22;3792;47.740;7.606;2024-01-15T14:22:07;2.50;99.90
7502;DHT22;3792;47.740;7.606;2024-01-15T14:24:36;2.60;99.90
7502;DHT22;3792;47.740;7.606;2024-01-15T14:27:05;2.70;99.90
7502;DHT22;3792;47.740;7.606;2024-01-15T14:29:34;2.70;99.90
7502;DHT22;3792;47.740;7.606;2024-01-15T14:32:02;2.60;99.90
7502;DHT22;3792;47.740;7.606;2024-01-15T14:34:33;2.60;99.90
7502;DHT22;3792;47.740;7.606;2024-01-15T14:37:01;2.50;99.90
7502;DHT22;3792;47.740;7.606;2024-01-15T14:39:29;2.60;99.90
7502;DHT22;3792;47.740;7.606;2024-01-15T14:41:59;2.60;99.90
7502;DHT22;3792;47.740;7.606;2024-01-15T14:44:26;2.60;99.90
7502;DHT22;3792;47.740;7.606;2024-01-15T14:46:55;2.50;99.90
7502;DHT22;3792;47.740;7.606;2024-01-15T14:49:24;2.50;99.90
7502;DHT22;3792;47.740;7.606;2024-01-15T14:51:52;2.40;99.90
7502;DHT22;3792;47.740;7.606;2024-01-15T14:54:20;2.40;99.90
7502;DHT22;3792;47.740;7.606;2024-01-15T14:56:47;2.30;99.90
7502;DHT22;3792;47.740;7.606;2024-01-15T14:59:14;2.30;99.90
7502;DHT22;3792;47.740;7.606;2024-01-15T15:01:41;2.30;99.90
7502;DHT22;3792;47.740;7.606;2024-01-15T15:04:10;2.20;99.90
7502;DHT22;3792;47.740;7.606;2024-01-15T15:06:40;2.20;99.90
7502;DHT22;3792;47.740;7.606;2024-01-15T15:09:07;2.20;99.90
7502;DHT22;3792;47.740;7.606;2024-01-15T15:11:37;2.10;99.90
7502;DHT22;3792;47.740;7.606;2024-01-15T15:14:07;2.10;99.90
7502;DHT22;3792;47.740;7.606;2024-01-15T15:16:34;2.10;99.90
7502;DHT22;3792;47.740;7.606;2024-01-15T15:19:01;2.00;99.90
7502;DHT22;3792;47.740;7.606;2024-01-15T15:21:30;2.30;99.90
7502;DHT22;3792;47.740;7.606;2024-01-15T15:23:57;2.40;99.90
7502;DHT22;3792;47.740;7.606;2024-01-15T15:26:26;2.30;99.90
7502;DHT22;3792;47.740;7.606;2024-01-15T15:28:55;2.30;99.90
7502;DHT22;3792;47.740;7.606;2024-01-15T15:31:24;2.20;99.90
7502;DHT22;3792;47.740;7.606;2024-01-15T15:33:53;2.30;99.90
7502;DHT22;3792;47.740;7.606;2024-01-15T15:36:20;2.30;99.90
7502;DHT22;3792;47.740;7.606;2024-01-15T15:38:50;2.30;99.90
7502;DHT22;3792;47.740;7.606;2024-01-15T15:41:19;2.20;99.90
7502;DHT22;3792;47.740;7.606;2024-01-15T15:43:46;2.20;99.90
7502;DHT22;3792;47.740;7.606;2024-01-15T15:46:13;2.20;99.90
7502;DHT22;3792;47.740;7.606;2024-01-15T15:48:42;2.10;99.90
7502;DHT22;3792;47.740;7.606;2024-01-15T15:51:10;2.10;99.90
7502;DHT22;3792;47.740;7.606;2024-01-15T15:53:41;2.10;99.90
7502;DHT22;3792;47.740;7.606;2024-01-15T15:56:11;2.10;99.90
7502;DHT22;3792;47.740;7.606;2024-01-15T15:58:38;2.10;99.90
7502;DHT22;3792;47.740;7.606;2024-01-15T16:01:05;2.10;99.90
7502;DHT22;3792;47.740;7.606;2024-01-15T16:03:32;2.00;99.90
7502;DHT22;3792;47.740;7.606;2024-01-15T16:06:02;2.00;99.90
7502;DHT22;3792;47.740;7.606;2024-01-15T16:08:32;2.00;99.90
7502;DHT22;3792;47.740;7.606;2024-01-15T16:11:01;2.00;99.90
7502;DHT22;3792;47.740;7.606;2024-01-15T16:13:33;2.00;99.90
7502;DHT22;3792;47.740;7.606;2024-01-15T16:16:00;1.90;99.90
7502;DHT22;3792;47.740;7.606;2024-01-15T16:18:27;1.90;99.90
7502;DHT22;3792;47.740;7.606;2024-01-15T16:20:54;1.90;99.90
7502;DHT22;3792;47.740;7.606;2024-01-15T16:23:22;1.90;99.90
7502;DHT22;3792;47.740;7.606;2024-01-15T16:25:49;1.80;99.90